createdAt,value
2018-08-18T10:05:33.273Z,101734.78
2018-08-18T10:08:00.270Z,101740.91
2018-08-18T10:10:27.554Z,101742.11
2018-08-18T10:12:54.516Z,101738.20
2018-08-18T10:15:21.469Z,101731.73
2018-08-18T10:17:48.360Z,101734.97
2018-08-18T10:20:15.299Z,101738.86
2018-08-18T10:22:42.204Z,101732.27
2018-08-18T10:25:09.137Z,101733.24
2018-08-18T10:27:42.785Z,101730.08
2018-08-18T10:30:09.742Z,101730.09
2018-08-18T10:32:45.218Z,101739.64
2018-08-18T10:35:16.752Z,101729.73
2018-08-18T10:37:43.634Z,101732.44
2018-08-18T10:40:10.569Z,101732.49
2018-08-18T10:42:37.516Z,101734.28
2018-08-18T10:45:05.834Z,101729.84
2018-08-18T10:47:32.716Z,101733.45
2018-08-18T10:50:11.192Z,101723.56
2018-08-18T10:52:49.708Z,101729.28
2018-08-18T10:55:17.534Z,101733.38
2018-08-18T10:57:58.592Z,101730.10
2018-08-18T11:00:26.788Z,101728.26
2018-08-18T11:02:54.943Z,101721.00
2018-08-18T11:05:22.712Z,101722.84
2018-08-18T11:07:56.327Z,101716.45
2018-08-18T11:10:25.720Z,101730.44
2018-08-18T11:12:52.652Z,101717.41
2018-08-18T11:15:19.607Z,101726.77
2018-08-18T11:17:46.522Z,101730.40
2018-08-18T11:20:16.384Z,101728.69
2018-08-18T11:23:02.079Z,101728.16
2018-08-18T11:25:33.149Z,101732.22
2018-08-18T11:28:00.249Z,101732.30
2018-08-18T11:30:27.272Z,101727.23
2018-08-18T11:32:55.291Z,101721.56
2018-08-18T11:35:22.277Z,101722.80
2018-08-18T11:38:01.361Z,101721.58
2018-08-18T11:40:28.385Z,101715.75
2018-08-18T11:42:57.601Z,101713.86
2018-08-18T11:45:26.404Z,101714.86
2018-08-18T11:48:11.456Z,101717.11
2018-08-18T11:50:38.719Z,101712.22
2018-08-18T11:53:05.769Z,101709.14
2018-08-18T11:55:32.705Z,101712.06
2018-08-18T11:58:02.476Z,101720.26
2018-08-18T12:00:31.245Z,101725.65
2018-08-18T12:03:02.192Z,101720.84
2018-08-18T12:05:31.084Z,101708.77
2018-08-18T12:07:57.983Z,101721.46
2018-08-18T12:10:24.903Z,101713.39
2018-08-18T12:12:51.817Z,101715.41
2018-08-18T12:15:18.728Z,101721.34
2018-08-18T12:17:55.048Z,101716.61
2018-08-18T12:20:22.475Z,101723.91
2018-08-18T12:22:50.428Z,101715.78
2018-08-18T12:25:17.375Z,101719.30
2018-08-18T12:27:44.316Z,101719.22
2018-08-18T12:30:23.504Z,101720.84
2018-08-18T12:32:50.417Z,101719.78
2018-08-18T12:35:17.362Z,101720.09
2018-08-18T12:37:44.291Z,101718.57
2018-08-18T12:40:11.269Z,101712.55
2018-08-18T12:42:38.184Z,101709.95
2018-08-18T12:45:05.134Z,101708.59
2018-08-18T12:47:32.175Z,101712.16
2018-08-18T12:49:59.165Z,101705.45
2018-08-18T12:52:26.767Z,101695.58
2018-08-18T12:54:53.668Z,101699.49
2018-08-18T12:57:32.272Z,101702.86
2018-08-18T12:59:59.189Z,101693.98
2018-08-18T13:02:36.507Z,101693.42
2018-08-18T13:05:03.462Z,101693.59
2018-08-18T13:07:34.984Z,101700.39
2018-08-18T13:10:12.341Z,101684.70
2018-08-18T13:12:39.256Z,101679.91
2018-08-18T13:15:06.241Z,101677.25
2018-08-18T13:17:33.157Z,101685.59
2018-08-18T13:20:00.090Z,101677.32
2018-08-18T13:22:27.016Z,101676.34
2018-08-18T13:24:53.928Z,101667.65
2018-08-18T13:27:20.857Z,101670.72
2018-08-18T13:29:47.770Z,101667.13
2018-08-18T13:32:14.705Z,101667.87
2018-08-18T13:34:41.627Z,101662.88
2018-08-18T13:37:08.556Z,101666.84
2018-08-18T13:39:35.494Z,101662.93
2018-08-18T13:42:18.172Z,101670.81
2018-08-18T13:44:45.074Z,101674.37
2018-08-18T13:47:12.046Z,101665.22
2018-08-18T13:49:38.932Z,101669.25
2018-08-18T13:52:05.868Z,101668.92
2018-08-18T13:54:33.061Z,101665.77
2018-08-18T13:56:59.979Z,101659.77
2018-08-18T13:59:40.184Z,101651.11
2018-08-18T14:02:07.849Z,101651.47
2018-08-18T14:04:34.770Z,101655.46
2018-08-18T14:07:01.697Z,101656.52
2018-08-18T14:09:28.597Z,101650.13
2018-08-18T14:12:01.380Z,101650.42
2018-08-18T14:14:28.308Z,101652.16
2018-08-18T14:16:55.244Z,101662.92
2018-08-18T14:19:22.158Z,101672.00
2018-08-18T14:21:53.710Z,101660.63
2018-08-18T14:24:25.236Z,101653.93
2018-08-18T14:27:00.024Z,101653.78
2018-08-18T14:29:33.962Z,101653.48
2018-08-18T14:32:01.468Z,101654.85
2018-08-18T14:34:28.546Z,101648.78
2018-08-18T14:37:00.201Z,101650.34
2018-08-18T14:39:37.243Z,101649.47
2018-08-18T14:42:04.667Z,101651.70
2018-08-18T14:44:31.596Z,101653.46
2018-08-18T14:46:58.537Z,101649.73
2018-08-18T14:49:25.454Z,101647.37
2018-08-18T14:51:52.364Z,101645.97
2018-08-18T14:54:23.435Z,101655.44
2018-08-18T14:56:50.336Z,101652.32
2018-08-18T14:59:17.755Z,101654.61
2018-08-18T15:01:44.683Z,101656.84
2018-08-18T15:04:11.664Z,101657.98
2018-08-18T15:06:38.536Z,101650.81
2018-08-18T15:09:05.465Z,101657.27
2018-08-18T15:11:32.364Z,101656.67
2018-08-18T15:13:59.320Z,101653.99
2018-08-18T15:16:26.223Z,101654.50
2018-08-18T15:18:53.137Z,101653.02
2018-08-18T15:21:20.030Z,101657.02
2018-08-18T15:23:46.939Z,101646.81
2018-08-18T15:26:13.828Z,101645.67
2018-08-18T15:28:40.724Z,101647.86
2018-08-18T15:31:07.652Z,101659.50
2018-08-18T15:33:34.593Z,101646.56
2018-08-18T15:36:01.496Z,101646.34
2018-08-18T15:38:41.802Z,101652.95
2018-08-18T15:41:09.184Z,101645.98
2018-08-18T15:43:36.068Z,101649.67
2018-08-18T15:46:04.040Z,101638.88
2018-08-18T15:48:31.072Z,101635.38
2018-08-18T15:50:57.969Z,101644.31
2018-08-18T15:53:58.740Z,101644.27
2018-08-18T15:56:26.547Z,101646.00
2018-08-18T15:58:54.341Z,101647.55
2018-08-18T16:01:22.794Z,101646.55
2018-08-18T16:03:50.256Z,101647.37
2018-08-18T16:06:17.170Z,101639.54
2018-08-18T16:08:44.076Z,101637.52
2018-08-18T16:11:10.966Z,101636.40
2018-08-18T16:13:37.863Z,101636.70
2018-08-18T16:16:04.816Z,101632.66
2018-08-18T16:18:31.760Z,101632.75
2018-08-18T16:21:02.280Z,101633.43
2018-08-18T16:23:29.204Z,101630.90
2018-08-18T16:25:56.161Z,101635.95
2018-08-18T16:28:29.605Z,101640.77
2018-08-18T16:30:56.522Z,101643.47
2018-08-18T16:33:23.421Z,101644.82
2018-08-18T16:35:50.324Z,101647.72
2018-08-18T16:38:17.860Z,101653.52
2018-08-18T16:40:44.765Z,101647.73
2018-08-18T16:43:12.963Z,101652.05
2018-08-18T16:45:39.892Z,101647.36
2018-08-18T16:48:08.061Z,101651.97
2018-08-18T16:50:36.068Z,101650.54
2018-08-18T16:53:04.241Z,101652.07
2018-08-18T16:55:32.732Z,101651.97
2018-08-18T16:57:59.642Z,101658.72
2018-08-18T17:00:26.557Z,101654.25
2018-08-18T17:02:53.457Z,101661.59
2018-08-18T17:05:20.482Z,101651.97
2018-08-18T17:07:47.392Z,101660.03
2018-08-18T17:10:14.296Z,101659.69
2018-08-18T17:12:41.196Z,101658.73
2018-08-18T17:15:08.122Z,101653.34
2018-08-18T17:17:35.033Z,101655.06
2018-08-18T17:20:02.138Z,101650.14
2018-08-18T17:22:29.044Z,101655.22
2018-08-18T17:24:56.052Z,101656.67
2018-08-18T17:27:23.052Z,101661.48
2018-08-18T17:29:51.243Z,101667.34
2018-08-18T17:32:18.177Z,101665.41
2018-08-18T17:34:45.164Z,101673.64
2018-08-18T17:37:12.108Z,101680.03
2018-08-18T17:39:39.082Z,101674.70
2018-08-18T17:42:06.001Z,101674.70
2018-08-18T17:44:32.937Z,101679.57
2018-08-18T17:47:04.477Z,101682.50
2018-08-18T17:49:34.730Z,101679.11
2018-08-18T17:52:08.286Z,101679.20
2018-08-18T17:54:36.663Z,101685.42
2018-08-18T17:57:04.216Z,101684.50
2018-08-18T17:59:31.215Z,101691.51
2018-08-18T18:02:05.083Z,101692.75
2018-08-18T18:04:32.298Z,101700.90
2018-08-18T18:06:59.882Z,101696.07
2018-08-18T18:09:29.101Z,101698.47
2018-08-18T18:11:56.392Z,101705.77
2018-08-18T18:14:23.316Z,101700.73
2018-08-18T18:16:50.277Z,101704.95
2018-08-18T18:19:17.166Z,101706.00
2018-08-18T18:21:44.450Z,101705.59
2018-08-18T18:24:11.417Z,101706.35
2018-08-18T18:26:38.665Z,101709.09
2018-08-18T18:29:06.016Z,101707.61
2018-08-18T18:31:32.924Z,101709.77
2018-08-18T18:34:02.535Z,101714.17
2018-08-18T18:36:30.196Z,101712.08
2018-08-18T18:38:57.382Z,101716.84
2018-08-18T18:41:24.629Z,101720.80
2018-08-18T18:43:59.890Z,101720.08
2018-08-18T18:46:27.034Z,101718.28
2018-08-18T18:48:53.992Z,101721.60
2018-08-18T18:51:21.022Z,101733.00
2018-08-18T18:53:49.585Z,101730.56
2018-08-18T18:56:16.554Z,101736.11
2018-08-18T18:58:43.444Z,101735.73
2018-08-18T19:01:11.478Z,101735.81
2018-08-18T19:03:38.334Z,101733.08
2018-08-18T19:06:05.246Z,101735.52
2018-08-18T19:08:33.284Z,101741.30
2018-08-18T19:11:01.924Z,101744.23
2018-08-18T19:13:29.085Z,101738.23
2018-08-18T19:15:56.032Z,101742.17
2018-08-18T19:18:22.916Z,101741.00
2018-08-18T19:20:49.849Z,101743.77
2018-08-18T19:23:17.863Z,101745.84
2018-08-18T19:25:46.048Z,101742.28
2018-08-18T19:28:15.653Z,101748.86
2018-08-18T19:30:42.549Z,101745.69
2018-08-18T19:33:10.027Z,101751.29
2018-08-18T19:35:39.690Z,101753.11
2018-08-18T19:38:06.604Z,101756.53
2018-08-18T19:40:34.522Z,101759.42
2018-08-18T19:43:01.413Z,101761.39
2018-08-18T19:45:28.308Z,101759.50
2018-08-18T19:47:55.216Z,101750.64
2018-08-18T19:50:22.100Z,101750.49
2018-08-18T19:52:50.726Z,101753.57
2018-08-18T19:55:17.588Z,101759.09
2018-08-18T19:57:44.485Z,101756.72
2018-08-18T20:00:17.818Z,101760.91
2018-08-18T20:02:58.715Z,101760.13
2018-08-18T20:05:25.628Z,101763.44
2018-08-18T20:07:52.539Z,101757.67
2018-08-18T20:10:19.506Z,101760.36
2018-08-18T20:12:46.456Z,101765.34
2018-08-18T20:15:13.653Z,101766.04
2018-08-18T20:17:41.119Z,101761.39
2018-08-18T20:20:08.108Z,101762.50
2018-08-18T20:22:35.038Z,101770.14
2018-08-18T20:25:02.464Z,101776.86
2018-08-18T20:27:29.633Z,101771.48
2018-08-18T20:29:56.617Z,101775.59
2018-08-18T20:32:23.553Z,101778.05
2018-08-18T20:34:50.506Z,101775.52
2018-08-18T20:37:17.416Z,101781.36
2018-08-18T20:39:44.479Z,101781.81
2018-08-18T20:42:11.415Z,101777.70
2018-08-18T20:44:38.327Z,101771.53
2018-08-18T20:47:05.840Z,101780.43
2018-08-18T20:49:32.763Z,101776.63
2018-08-18T20:51:59.713Z,101780.34
2018-08-18T20:54:26.700Z,101784.98
2018-08-18T20:56:53.619Z,101786.97
2018-08-18T20:59:20.573Z,101778.77
2018-08-18T21:01:47.476Z,101783.72
2018-08-18T21:04:14.404Z,101782.08
2018-08-18T21:06:41.329Z,101793.03
2018-08-18T21:09:22.097Z,101790.04
2018-08-18T21:11:49.014Z,101791.45
2018-08-18T21:14:15.944Z,101788.40
2018-08-18T21:16:42.856Z,101799.21
2018-08-18T21:19:09.754Z,101798.75
2018-08-18T21:21:36.635Z,101798.41
2018-08-18T21:24:03.840Z,101803.84
2018-08-18T21:26:30.831Z,101797.80
2018-08-18T21:28:57.933Z,101797.48
2018-08-18T21:31:30.702Z,101803.63
2018-08-18T21:33:59.412Z,101803.17
2018-08-18T21:36:26.549Z,101805.19
2018-08-18T21:38:53.445Z,101811.05
2018-08-18T21:41:20.362Z,101807.34
2018-08-18T21:43:47.236Z,101808.69
2018-08-18T21:46:14.124Z,101810.10
2018-08-18T21:48:47.182Z,101818.45
2018-08-18T21:51:14.148Z,101809.72
2018-08-18T21:53:41.332Z,101807.64
2018-08-18T21:56:08.309Z,101805.10
2018-08-18T21:58:35.212Z,101809.73
2018-08-18T22:01:07.756Z,101820.25
2018-08-18T22:03:34.656Z,101810.77
2018-08-18T22:06:01.598Z,101812.03
2018-08-18T22:08:28.504Z,101809.03
2018-08-18T22:10:55.820Z,101806.88
2018-08-18T22:13:22.916Z,101807.03
2018-08-18T22:15:49.813Z,101807.98
2018-08-18T22:18:16.744Z,101809.17
2018-08-18T22:20:43.683Z,101811.86
2018-08-18T22:23:10.604Z,101804.73
2018-08-18T22:25:37.544Z,101808.91
2018-08-18T22:28:04.492Z,101809.72
2018-08-18T22:30:31.420Z,101813.75
2018-08-18T22:32:58.327Z,101803.69
2018-08-18T22:35:25.253Z,101799.58
2018-08-18T22:37:52.171Z,101802.95
2018-08-18T22:40:19.132Z,101798.19
2018-08-18T22:42:46.065Z,101799.88
2018-08-18T22:45:21.420Z,101797.80
2018-08-18T22:47:48.332Z,101806.28
2018-08-18T22:50:15.347Z,101802.15
2018-08-18T22:52:45.141Z,101802.64
2018-08-18T22:55:12.076Z,101804.44
2018-08-18T22:57:41.066Z,101802.36
2018-08-18T23:00:08.053Z,101808.74
2018-08-18T23:02:34.971Z,101811.17
2018-08-18T23:05:01.884Z,101816.45
2018-08-18T23:07:28.812Z,101817.86
2018-08-18T23:09:55.736Z,101812.63
2018-08-18T23:12:22.668Z,101812.38
2018-08-18T23:14:49.578Z,101810.65
2018-08-18T23:17:16.490Z,101806.54
2018-08-18T23:19:43.436Z,101810.38
2018-08-18T23:22:22.121Z,101800.99
2018-08-18T23:24:49.056Z,101804.69
2018-08-18T23:27:16.008Z,101801.66
2018-08-18T23:29:42.934Z,101797.86
2018-08-18T23:32:15.831Z,101802.15
2018-08-18T23:34:42.765Z,101796.73
2018-08-18T23:37:15.212Z,101800.68
2018-08-18T23:39:42.128Z,101802.55
2018-08-18T23:42:16.737Z,101806.95
2018-08-18T23:44:43.708Z,101804.41
2018-08-18T23:47:10.656Z,101805.88
2018-08-18T23:49:37.688Z,101811.78
2018-08-18T23:52:04.689Z,101812.17
2018-08-18T23:54:32.436Z,101803.39
2018-08-18T23:56:59.361Z,101799.44
2018-08-18T23:59:26.263Z,101803.52
